sensor_id;sensor_type;location;lat;lon;timestamp;P1;durP1;ratioP1;P2;durP2;ratioP2
55069;SDS011;40967;52.070;8.596;2023-05-15T00:01:18;1.27;;;0.77;;
55069;SDS011;40967;52.070;8.596;2023-05-15T00:03:44;1.48;;;0.80;;
55069;SDS011;40967;52.070;8.596;2023-05-15T00:06:10;1.17;;;0.77;;
55069;SDS011;40967;52.070;8.596;2023-05-15T00:08:35;1.40;;;1.00;;
55069;SDS011;40967;52.070;8.596;2023-05-15T00:11:01;1.30;;;0.80;;
55069;SDS011;40967;52.070;8.596;2023-05-15T00:13:26;1.25;;;0.85;;
55069;SDS011;40967;52.070;8.596;2023-05-15T00:15:51;1.17;;;0.80;;
55069;SDS011;40967;52.070;8.596;2023-05-15T00:18:17;1.00;;;0.80;;
55069;SDS011;40967;52.070;8.596;2023-05-15T00:20:42;1.13;;;0.80;;
55069;SDS011;40967;52.070;8.596;2023-05-15T00:23:08;1.20;;;0.73;;
55069;SDS011;40967;52.070;8.596;2023-05-15T00:25:33;1.33;;;0.80;;
55069;SDS011;40967;52.070;8.596;2023-05-15T00:27:59;1.13;;;0.80;;
55069;SDS011;40967;52.070;8.596;2023-05-15T00:30:24;1.40;;;0.90;;
55069;SDS011;40967;52.070;8.596;2023-05-15T00:32:50;1.23;;;0.70;;
55069;SDS011;40967;52.070;8.596;2023-05-15T00:35:18;1.30;;;0.80;;
55069;SDS011;40967;52.070;8.596;2023-05-15T00:37:43;1.27;;;0.83;;
55069;SDS011;40967;52.070;8.596;2023-05-15T00:40:09;1.17;;;0.88;;
55069;SDS011;40967;52.070;8.596;2023-05-15T00:42:38;1.33;;;0.90;;
55069;SDS011;40967;52.070;8.596;2023-05-15T00:45:04;1.10;;;0.90;;
55069;SDS011;40967;52.070;8.596;2023-05-15T00:47:33;1.13;;;0.83;;
55069;SDS011;40967;52.070;8.596;2023-05-15T00:49:59;1.50;;;0.88;;
55069;SDS011;40967;52.070;8.596;2023-05-15T00:52:27;0.90;;;0.60;;
55069;SDS011;40967;52.070;8.596;2023-05-15T00:54:53;1.73;;;0.98;;
55069;SDS011;40967;52.070;8.596;2023-05-15T00:57:18;1.50;;;0.93;;
55069;SDS011;40967;52.070;8.596;2023-05-15T00:59:45;1.10;;;0.80;;
55069;SDS011;40967;52.070;8.596;2023-05-15T01:02:16;1.48;;;1.08;;
55069;SDS011;40967;52.070;8.596;2023-05-15T01:04:43;1.15;;;0.90;;
55069;SDS011;40967;52.070;8.596;2023-05-15T01:07:09;1.05;;;0.77;;
55069;SDS011;40967;52.070;8.596;2023-05-15T01:09:35;1.42;;;1.00;;
55069;SDS011;40967;52.070;8.596;2023-05-15T01:12:02;1.40;;;0.90;;
55069;SDS011;40967;52.070;8.596;2023-05-15T01:14:30;1.43;;;0.93;;
55069;SDS011;40967;52.070;8.596;2023-05-15T01:16:55;1.17;;;0.90;;
55069;SDS011;40967;52.070;8.596;2023-05-15T01:19:21;1.87;;;1.10;;
55069;SDS011;40967;52.070;8.596;2023-05-15T01:27:47;1.60;;;1.00;;
55069;SDS011;40967;52.070;8.596;2023-05-15T01:30:17;1.50;;;1.00;;
55069;SDS011;40967;52.070;8.596;2023-05-15T01:35:31;1.30;;;0.80;;
55069;SDS011;40967;52.070;8.596;2023-05-15T01:40:34;1.75;;;1.10;;
55069;SDS011;40967;52.070;8.596;2023-05-15T01:43:00;1.67;;;1.10;;
55069;SDS011;40967;52.070;8.596;2023-05-15T01:45:31;1.77;;;1.20;;
55069;SDS011;40967;52.070;8.596;2023-05-15T01:47:58;1.55;;;1.00;;
55069;SDS011;40967;52.070;8.596;2023-05-15T01:50:24;1.58;;;1.02;;
55069;SDS011;40967;52.070;8.596;2023-05-15T01:52:53;1.67;;;1.00;;
55069;SDS011;40967;52.070;8.596;2023-05-15T01:55:22;2.03;;;1.25;;
55069;SDS011;40967;52.070;8.596;2023-05-15T01:57:49;1.90;;;1.10;;
55069;SDS011;40967;52.070;8.596;2023-05-15T02:00:16;2.08;;;1.30;;
55069;SDS011;40967;52.070;8.596;2023-05-15T02:02:43;1.70;;;1.13;;
55069;SDS011;40967;52.070;8.596;2023-05-15T02:05:10;2.10;;;1.30;;
55069;SDS011;40967;52.070;8.596;2023-05-15T02:07:37;1.70;;;1.10;;
55069;SDS011;40967;52.070;8.596;2023-05-15T02:10:03;1.75;;;1.00;;
55069;SDS011;40967;52.070;8.596;2023-05-15T02:12:29;1.60;;;1.08;;
55069;SDS011;40967;52.070;8.596;2023-05-15T02:14:56;1.77;;;1.00;;
55069;SDS011;40967;52.070;8.596;2023-05-15T02:17:22;1.20;;;0.80;;
55069;SDS011;40967;52.070;8.596;2023-05-15T02:19:48;1.27;;;0.85;;
55069;SDS011;40967;52.070;8.596;2023-05-15T02:22:13;1.20;;;0.90;;
55069;SDS011;40967;52.070;8.596;2023-05-15T02:24:39;1.30;;;0.88;;
55069;SDS011;40967;52.070;8.596;2023-05-15T02:32:41;1.38;;;0.90;;
55069;SDS011;40967;52.070;8.596;2023-05-15T02:35:16;1.35;;;0.90;;
55069;SDS011;40967;52.070;8.596;2023-05-15T02:37:51;1.60;;;1.02;;
55069;SDS011;40967;52.070;8.596;2023-05-15T02:40:22;1.48;;;1.00;;
55069;SDS011;40967;52.070;8.596;2023-05-15T02:42:49;2.07;;;1.33;;
55069;SDS011;40967;52.070;8.596;2023-05-15T02:45:17;2.30;;;1.50;;
55069;SDS011;40967;52.070;8.596;2023-05-15T02:47:44;2.30;;;1.50;;
55069;SDS011;40967;52.070;8.596;2023-05-15T02:50:10;2.70;;;1.65;;
55069;SDS011;40967;52.070;8.596;2023-05-15T02:52:36;3.05;;;1.88;;
55069;SDS011;40967;52.070;8.596;2023-05-15T02:55:01;2.33;;;1.57;;
55069;SDS011;40967;52.070;8.596;2023-05-15T02:57:28;2.73;;;1.53;;
55069;SDS011;40967;52.070;8.596;2023-05-15T02:59:53;2.40;;;1.40;;
55069;SDS011;40967;52.070;8.596;2023-05-15T03:02:20;2.45;;;1.48;;
55069;SDS011;40967;52.070;8.596;2023-05-15T03:04:46;2.17;;;1.17;;
55069;SDS011;40967;52.070;8.596;2023-05-15T03:07:11;1.90;;;1.37;;
55069;SDS011;40967;52.070;8.596;2023-05-15T03:09:38;1.75;;;1.10;;
55069;SDS011;40967;52.070;8.596;2023-05-15T03:12:04;1.70;;;1.20;;
55069;SDS011;40967;52.070;8.596;2023-05-15T03:14:30;1.23;;;0.90;;
55069;SDS011;40967;52.070;8.596;2023-05-15T03:16:55;1.30;;;0.90;;
55069;SDS011;40967;52.070;8.596;2023-05-15T03:19:20;1.27;;;0.90;;
55069;SDS011;40967;52.070;8.596;2023-05-15T03:21:46;1.08;;;0.80;;
55069;SDS011;40967;52.070;8.596;2023-05-15T03:24:11;1.40;;;1.00;;
55069;SDS011;40967;52.070;8.596;2023-05-15T03:26:37;1.40;;;0.93;;
55069;SDS011;40967;52.070;8.596;2023-05-15T03:29:04;1.73;;;1.15;;
55069;SDS011;40967;52.070;8.596;2023-05-15T03:31:32;1.60;;;1.10;;
55069;SDS011;40967;52.070;8.596;2023-05-15T03:33:58;1.83;;;1.20;;
55069;SDS011;40967;52.070;8.596;2023-05-15T03:36:23;1.25;;;1.00;;
55069;SDS011;40967;52.070;8.596;2023-05-15T03:38:49;1.95;;;1.15;;
55069;SDS011;40967;52.070;8.596;2023-05-15T03:41:14;1.13;;;0.87;;
55069;SDS011;40967;52.070;8.596;2023-05-15T03:43:40;1.77;;;1.10;;
55069;SDS011;40967;52.070;8.596;2023-05-15T03:46:05;1.63;;;1.08;;
55069;SDS011;40967;52.070;8.596;2023-05-15T03:48:30;1.90;;;1.20;;
55069;SDS011;40967;52.070;8.596;2023-05-15T03:50:56;1.60;;;1.10;;
55069;SDS011;40967;52.070;8.596;2023-05-15T03:53:21;1.57;;;1.00;;
55069;SDS011;40967;52.070;8.596;2023-05-15T03:55:47;1.88;;;1.00;;
55069;SDS011;40967;52.070;8.596;2023-05-15T03:58:12;1.27;;;0.83;;
55069;SDS011;40967;52.070;8.596;2023-05-15T04:00:38;1.70;;;1.10;;
55069;SDS011;40967;52.070;8.596;2023-05-15T04:03:03;1.70;;;0.90;;
55069;SDS011;40967;52.070;8.596;2023-05-15T04:05:29;1.55;;;0.90;;
55069;SDS011;40967;52.070;8.596;2023-05-15T04:07:54;1.60;;;0.90;;
55069;SDS011;40967;52.070;8.596;2023-05-15T04:10:20;2.30;;;1.10;;
55069;SDS011;40967;52.070;8.596;2023-05-15T04:12:45;1.75;;;1.10;;
55069;SDS011;40967;52.070;8.596;2023-05-15T04:15:21;1.60;;;0.98;;
55069;SDS011;40967;52.070;8.596;2023-05-15T04:17:51;1.60;;;1.00;;
55069;SDS011;40967;52.070;8.596;2023-05-15T04:20:18;1.77;;;1.00;;
55069;SDS011;40967;52.070;8.596;2023-05-15T04:22:45;1.52;;;1.00;;
55069;SDS011;40967;52.070;8.596;2023-05-15T04:25:11;1.73;;;1.15;;
55069;SDS011;40967;52.070;8.596;2023-05-15T04:27:38;1.70;;;1.10;;
55069;SDS011;40967;52.070;8.596;2023-05-15T04:30:05;2.67;;;1.48;;
55069;SDS011;40967;52.070;8.596;2023-05-15T04:32:31;2.33;;;1.23;;
55069;SDS011;40967;52.070;8.596;2023-05-15T04:35:00;1.75;;;1.15;;
55069;SDS011;40967;52.070;8.596;2023-05-15T04:37:27;2.63;;;1.27;;
55069;SDS011;40967;52.070;8.596;2023-05-15T04:39:53;2.25;;;1.40;;
55069;SDS011;40967;52.070;8.596;2023-05-15T04:42:19;2.13;;;1.30;;
55069;SDS011;40967;52.070;8.596;2023-05-15T04:44:44;2.07;;;1.20;;
55069;SDS011;40967;52.070;8.596;2023-05-15T04:47:10;2.30;;;1.40;;
55069;SDS011;40967;52.070;8.596;2023-05-15T04:49:36;2.37;;;1.40;;
55069;SDS011;40967;52.070;8.596;2023-05-15T04:52:02;2.10;;;1.38;;
55069;SDS011;40967;52.070;8.596;2023-05-15T04:54:28;2.65;;;1.52;;
55069;SDS011;40967;52.070;8.596;2023-05-15T04:56:53;2.20;;;1.40;;
55069;SDS011;40967;52.070;8.596;2023-05-15T04:59:19;2.37;;;1.50;;
55069;SDS011;40967;52.070;8.596;2023-05-15T05:01:44;2.47;;;1.57;;
55069;SDS011;40967;52.070;8.596;2023-05-15T05:04:11;2.25;;;1.60;;
55069;SDS011;40967;52.070;8.596;2023-05-15T05:06:36;2.23;;;1.50;;
55069;SDS011;40967;52.070;8.596;2023-05-15T05:09:02;2.47;;;1.37;;
55069;SDS011;40967;52.070;8.596;2023-05-15T05:11:27;2.70;;;1.48;;
55069;SDS011;40967;52.070;8.596;2023-05-15T05:13:53;1.80;;;1.30;;
55069;SDS011;40967;52.070;8.596;2023-05-15T05:16:18;2.17;;;1.27;;
55069;SDS011;40967;52.070;8.596;2023-05-15T05:18:44;2.22;;;1.40;;
55069;SDS011;40967;52.070;8.596;2023-05-15T05:21:09;2.40;;;1.57;;
55069;SDS011;40967;52.070;8.596;2023-05-15T05:23:35;2.83;;;1.80;;
55069;SDS011;40967;52.070;8.596;2023-05-15T05:26:02;3.03;;;1.97;;
55069;SDS011;40967;52.070;8.596;2023-05-15T05:28:27;2.17;;;1.50;;
55069;SDS011;40967;52.070;8.596;2023-05-15T05:30:53;2.20;;;1.40;;
55069;SDS011;40967;52.070;8.596;2023-05-15T05:33:18;2.23;;;1.37;;
55069;SDS011;40967;52.070;8.596;2023-05-15T05:35:44;2.30;;;1.27;;
55069;SDS011;40967;52.070;8.596;2023-05-15T05:38:09;1.33;;;0.97;;
55069;SDS011;40967;52.070;8.596;2023-05-15T05:40:35;1.63;;;1.03;;
55069;SDS011;40967;52.070;8.596;2023-05-15T05:43:02;1.73;;;1.08;;
55069;SDS011;40967;52.070;8.596;2023-05-15T05:45:28;1.48;;;0.90;;
55069;SDS011;40967;52.070;8.596;2023-05-15T05:47:54;1.45;;;1.10;;
55069;SDS011;40967;52.070;8.596;2023-05-15T05:50:20;1.13;;;0.82;;
55069;SDS011;40967;52.070;8.596;2023-05-15T05:52:45;1.45;;;0.90;;
55069;SDS011;40967;52.070;8.596;2023-05-15T05:55:11;1.50;;;0.93;;
55069;SDS011;40967;52.070;8.596;2023-05-15T05:57:36;1.50;;;1.00;;
55069;SDS011;40967;52.070;8.596;2023-05-15T06:00:01;1.37;;;0.90;;
55069;SDS011;40967;52.070;8.596;2023-05-15T06:02:29;1.70;;;1.00;;
55069;SDS011;40967;52.070;8.596;2023-05-15T06:04:55;1.83;;;1.10;;
55069;SDS011;40967;52.070;8.596;2023-05-15T06:07:23;2.80;;;1.87;;
55069;SDS011;40967;52.070;8.596;2023-05-15T06:09:49;2.80;;;1.67;;
55069;SDS011;40967;52.070;8.596;2023-05-15T06:12:14;3.03;;;1.90;;
55069;SDS011;40967;52.070;8.596;2023-05-15T06:14:40;2.90;;;1.87;;
55069;SDS011;40967;52.070;8.596;2023-05-15T06:17:05;4.13;;;2.45;;
55069;SDS011;40967;52.070;8.596;2023-05-15T06:19:31;3.70;;;2.38;;
55069;SDS011;40967;52.070;8.596;2023-05-15T06:21:56;3.47;;;2.27;;
55069;SDS011;40967;52.070;8.596;2023-05-15T06:24:21;2.93;;;2.10;;
55069;SDS011;40967;52.070;8.596;2023-05-15T06:26:47;3.13;;;1.97;;
55069;SDS011;40967;52.070;8.596;2023-05-15T06:29:12;3.50;;;2.20;;
55069;SDS011;40967;52.070;8.596;2023-05-15T06:31:38;4.00;;;2.50;;
55069;SDS011;40967;52.070;8.596;2023-05-15T06:34:03;3.50;;;2.30;;
55069;SDS011;40967;52.070;8.596;2023-05-15T06:36:28;5.23;;;3.93;;
55069;SDS011;40967;52.070;8.596;2023-05-15T06:38:54;3.77;;;2.53;;
55069;SDS011;40967;52.070;8.596;2023-05-15T06:41:19;3.70;;;2.30;;
55069;SDS011;40967;52.070;8.596;2023-05-15T06:43:45;2.90;;;1.90;;
55069;SDS011;40967;52.070;8.596;2023-05-15T06:46:10;3.03;;;2.03;;
55069;SDS011;40967;52.070;8.596;2023-05-15T06:48:36;2.87;;;1.90;;
55069;SDS011;40967;52.070;8.596;2023-05-15T06:51:01;3.40;;;2.10;;
55069;SDS011;40967;52.070;8.596;2023-05-15T06:53:28;2.90;;;1.93;;
55069;SDS011;40967;52.070;8.596;2023-05-15T06:55:53;3.30;;;2.10;;
55069;SDS011;40967;52.070;8.596;2023-05-15T06:58:19;2.88;;;1.60;;
55069;SDS011;40967;52.070;8.596;2023-05-15T07:00:44;2.42;;;1.63;;
55069;SDS011;40967;52.070;8.596;2023-05-15T07:03:10;3.57;;;2.37;;
55069;SDS011;40967;52.070;8.596;2023-05-15T07:05:35;6.13;;;4.53;;
55069;SDS011;40967;52.070;8.596;2023-05-15T07:08:01;4.00;;;2.60;;
55069;SDS011;40967;52.070;8.596;2023-05-15T07:10:26;3.43;;;2.10;;
55069;SDS011;40967;52.070;8.596;2023-05-15T07:12:51;2.87;;;1.80;;
55069;SDS011;40967;52.070;8.596;2023-05-15T07:15:17;2.63;;;1.67;;
55069;SDS011;40967;52.070;8.596;2023-05-15T07:17:42;3.67;;;2.50;;
55069;SDS011;40967;52.070;8.596;2023-05-15T07:20:08;4.78;;;2.92;;
55069;SDS011;40967;52.070;8.596;2023-05-15T07:22:33;6.95;;;3.67;;
55069;SDS011;40967;52.070;8.596;2023-05-15T07:24:59;5.33;;;2.97;;
55069;SDS011;40967;52.070;8.596;2023-05-15T07:27:24;4.40;;;2.33;;
55069;SDS011;40967;52.070;8.596;2023-05-15T07:29:52;4.13;;;1.90;;
55069;SDS011;40967;52.070;8.596;2023-05-15T07:32:17;3.80;;;2.40;;
55069;SDS011;40967;52.070;8.596;2023-05-15T07:34:43;5.07;;;3.10;;
55069;SDS011;40967;52.070;8.596;2023-05-15T07:37:09;3.57;;;2.23;;
55069;SDS011;40967;52.070;8.596;2023-05-15T07:39:34;3.00;;;2.00;;
55069;SDS011;40967;52.070;8.596;2023-05-15T07:42:00;3.93;;;2.20;;
55069;SDS011;40967;52.070;8.596;2023-05-15T07:44:25;3.97;;;2.63;;
55069;SDS011;40967;52.070;8.596;2023-05-15T07:46:50;3.30;;;2.00;;
55069;SDS011;40967;52.070;8.596;2023-05-15T07:49:16;3.40;;;1.90;;
55069;SDS011;40967;52.070;8.596;2023-05-15T07:51:41;3.00;;;1.70;;
55069;SDS011;40967;52.070;8.596;2023-05-15T07:54:07;3.17;;;2.10;;
55069;SDS011;40967;52.070;8.596;2023-05-15T07:56:32;4.40;;;2.83;;
55069;SDS011;40967;52.070;8.596;2023-05-15T07:58:58;4.23;;;2.60;;
55069;SDS011;40967;52.070;8.596;2023-05-15T08:01:23;3.20;;;2.10;;
55069;SDS011;40967;52.070;8.596;2023-05-15T08:03:49;2.90;;;1.80;;
55069;SDS011;40967;52.070;8.596;2023-05-15T08:06:14;2.90;;;1.90;;
55069;SDS011;40967;52.070;8.596;2023-05-15T08:08:40;2.53;;;1.63;;
55069;SDS011;40967;52.070;8.596;2023-05-15T08:11:05;2.70;;;1.80;;
55069;SDS011;40967;52.070;8.596;2023-05-15T08:13:31;3.50;;;1.95;;
55069;SDS011;40967;52.070;8.596;2023-05-15T08:15:56;4.63;;;2.50;;
55069;SDS011;40967;52.070;8.596;2023-05-15T08:18:21;3.95;;;2.53;;
55069;SDS011;40967;52.070;8.596;2023-05-15T08:20:47;4.20;;;2.83;;
55069;SDS011;40967;52.070;8.596;2023-05-15T08:23:13;3.50;;;2.55;;
55069;SDS011;40967;52.070;8.596;2023-05-15T08:25:38;6.00;;;4.23;;
55069;SDS011;40967;52.070;8.596;2023-05-15T08:28:03;5.17;;;3.27;;
55069;SDS011;40967;52.070;8.596;2023-05-15T08:30:29;4.45;;;2.50;;
55069;SDS011;40967;52.070;8.596;2023-05-15T08:32:55;2.95;;;1.90;;
55069;SDS011;40967;52.070;8.596;2023-05-15T08:35:20;4.32;;;2.60;;
55069;SDS011;40967;52.070;8.596;2023-05-15T08:37:45;4.23;;;2.70;;
55069;SDS011;40967;52.070;8.596;2023-05-15T08:40:11;4.37;;;2.63;;
55069;SDS011;40967;52.070;8.596;2023-05-15T08:42:43;3.33;;;2.13;;
55069;SDS011;40967;52.070;8.596;2023-05-15T08:45:12;3.65;;;2.25;;
55069;SDS011;40967;52.070;8.596;2023-05-15T08:47:38;3.13;;;2.00;;
55069;SDS011;40967;52.070;8.596;2023-05-15T08:52:36;3.23;;;1.70;;
55069;SDS011;40967;52.070;8.596;2023-05-15T08:55:06;3.28;;;2.25;;
55069;SDS011;40967;52.070;8.596;2023-05-15T08:57:32;3.83;;;2.55;;
55069;SDS011;40967;52.070;8.596;2023-05-15T08:59:59;3.38;;;2.22;;
55069;SDS011;40967;52.070;8.596;2023-05-15T09:02:25;3.83;;;2.60;;
55069;SDS011;40967;52.070;8.596;2023-05-15T09:04:51;5.00;;;3.73;;
55069;SDS011;40967;52.070;8.596;2023-05-15T09:07:16;5.80;;;4.57;;
55069;SDS011;40967;52.070;8.596;2023-05-15T09:09:43;9.90;;;7.80;;
55069;SDS011;40967;52.070;8.596;2023-05-15T09:12:15;6.97;;;4.95;;
55069;SDS011;40967;52.070;8.596;2023-05-15T09:14:41;7.20;;;6.03;;
55069;SDS011;40967;52.070;8.596;2023-05-15T09:17:10;5.63;;;4.25;;
55069;SDS011;40967;52.070;8.596;2023-05-15T09:19:39;8.90;;;6.95;;
55069;SDS011;40967;52.070;8.596;2023-05-15T09:24:48;7.60;;;5.75;;
55069;SDS011;40967;52.070;8.596;2023-05-15T09:27:17;6.28;;;4.22;;
55069;SDS011;40967;52.070;8.596;2023-05-15T09:29:43;5.90;;;4.55;;
55069;SDS011;40967;52.070;8.596;2023-05-15T09:32:10;4.55;;;3.20;;
55069;SDS011;40967;52.070;8.596;2023-05-15T09:34:40;4.35;;;2.50;;
55069;SDS011;40967;52.070;8.596;2023-05-15T09:37:07;7.00;;;4.70;;
55069;SDS011;40967;52.070;8.596;2023-05-15T09:39:42;4.00;;;2.73;;
55069;SDS011;40967;52.070;8.596;2023-05-15T09:42:08;4.50;;;2.70;;
55069;SDS011;40967;52.070;8.596;2023-05-15T09:44:39;4.15;;;2.60;;
55069;SDS011;40967;52.070;8.596;2023-05-15T09:47:08;4.10;;;2.70;;
55069;SDS011;40967;52.070;8.596;2023-05-15T09:49:34;4.00;;;2.70;;
55069;SDS011;40967;52.070;8.596;2023-05-15T09:52:00;4.50;;;3.03;;
55069;SDS011;40967;52.070;8.596;2023-05-15T09:54:26;3.83;;;2.90;;
55069;SDS011;40967;52.070;8.596;2023-05-15T09:56:53;3.90;;;2.73;;
55069;SDS011;40967;52.070;8.596;2023-05-15T09:59:19;3.17;;;2.15;;
55069;SDS011;40967;52.070;8.596;2023-05-15T10:01:49;5.65;;;4.63;;
55069;SDS011;40967;52.070;8.596;2023-05-15T10:04:15;4.90;;;3.08;;
55069;SDS011;40967;52.070;8.596;2023-05-15T10:06:44;4.43;;;3.08;;
55069;SDS011;40967;52.070;8.596;2023-05-15T10:09:11;3.70;;;2.50;;
55069;SDS011;40967;52.070;8.596;2023-05-15T10:11:39;3.40;;;2.10;;
55069;SDS011;40967;52.070;8.596;2023-05-15T10:14:09;3.43;;;1.93;;
55069;SDS011;40967;52.070;8.596;2023-05-15T10:16:37;3.00;;;1.80;;
55069;SDS011;40967;52.070;8.596;2023-05-15T10:19:03;2.85;;;1.90;;
55069;SDS011;40967;52.070;8.596;2023-05-15T10:21:34;2.88;;;1.83;;
55069;SDS011;40967;52.070;8.596;2023-05-15T10:24:02;2.58;;;1.70;;
55069;SDS011;40967;52.070;8.596;2023-05-15T10:26:38;2.03;;;1.40;;
55069;SDS011;40967;52.070;8.596;2023-05-15T10:29:05;2.85;;;1.50;;
55069;SDS011;40967;52.070;8.596;2023-05-15T10:31:33;2.30;;;1.50;;
55069;SDS011;40967;52.070;8.596;2023-05-15T10:34:02;6.40;;;4.30;;
55069;SDS011;40967;52.070;8.596;2023-05-15T10:36:32;4.38;;;2.85;;
55069;SDS011;40967;52.070;8.596;2023-05-15T10:38:59;4.00;;;2.70;;
55069;SDS011;40967;52.070;8.596;2023-05-15T10:41:27;8.80;;;6.18;;
55069;SDS011;40967;52.070;8.596;2023-05-15T10:43:54;4.43;;;3.22;;
55069;SDS011;40967;52.070;8.596;2023-05-15T10:46:22;4.55;;;3.45;;
55069;SDS011;40967;52.070;8.596;2023-05-15T10:48:49;5.10;;;3.57;;
55069;SDS011;40967;52.070;8.596;2023-05-15T10:51:16;8.32;;;6.13;;
55069;SDS011;40967;52.070;8.596;2023-05-15T10:53:47;4.97;;;3.07;;
55069;SDS011;40967;52.070;8.596;2023-05-15T10:56:16;4.57;;;2.85;;
55069;SDS011;40967;52.070;8.596;2023-05-15T10:58:48;5.97;;;4.05;;
55069;SDS011;40967;52.070;8.596;2023-05-15T11:01:24;3.53;;;2.28;;
55069;SDS011;40967;52.070;8.596;2023-05-15T11:06:34;5.05;;;2.60;;
55069;SDS011;40967;52.070;8.596;2023-05-15T11:14:17;2.87;;;1.60;;
55069;SDS011;40967;52.070;8.596;2023-05-15T11:24:58;14.00;;;11.37;;
55069;SDS011;40967;52.070;8.596;2023-05-15T11:27:26;9.33;;;7.20;;
55069;SDS011;40967;52.070;8.596;2023-05-15T11:35:45;5.32;;;3.72;;
55069;SDS011;40967;52.070;8.596;2023-05-15T11:38:16;8.05;;;6.28;;
55069;SDS011;40967;52.070;8.596;2023-05-15T11:43:28;14.65;;;11.40;;
55069;SDS011;40967;52.070;8.596;2023-05-15T11:48:34;8.10;;;6.35;;
55069;SDS011;40967;52.070;8.596;2023-05-15T11:51:03;10.57;;;8.30;;
55069;SDS011;40967;52.070;8.596;2023-05-15T11:53:45;18.10;;;13.23;;
55069;SDS011;40967;52.070;8.596;2023-05-15T11:56:19;10.98;;;8.95;;
55069;SDS011;40967;52.070;8.596;2023-05-15T11:58:49;9.05;;;7.03;;
55069;SDS011;40967;52.070;8.596;2023-05-15T12:01:16;11.15;;;8.90;;
55069;SDS011;40967;52.070;8.596;2023-05-15T12:03:41;12.75;;;10.32;;
55069;SDS011;40967;52.070;8.596;2023-05-15T12:06:08;11.43;;;8.88;;
55069;SDS011;40967;52.070;8.596;2023-05-15T12:08:35;11.23;;;8.07;;
55069;SDS011;40967;52.070;8.596;2023-05-15T12:11:05;9.85;;;7.88;;
55069;SDS011;40967;52.070;8.596;2023-05-15T12:13:31;11.73;;;9.05;;
55069;SDS011;40967;52.070;8.596;2023-05-15T12:15:58;14.38;;;10.55;;
55069;SDS011;40967;52.070;8.596;2023-05-15T12:18:24;15.68;;;12.25;;
55069;SDS011;40967;52.070;8.596;2023-05-15T12:20:50;16.27;;;11.70;;
55069;SDS011;40967;52.070;8.596;2023-05-15T12:23:19;10.60;;;7.88;;
55069;SDS011;40967;52.070;8.596;2023-05-15T12:25:45;11.20;;;7.90;;
55069;SDS011;40967;52.070;8.596;2023-05-15T12:28:13;9.50;;;7.45;;
55069;SDS011;40967;52.070;8.596;2023-05-15T12:30:39;18.23;;;14.87;;
55069;SDS011;40967;52.070;8.596;2023-05-15T12:33:07;10.50;;;7.47;;
55069;SDS011;40967;52.070;8.596;2023-05-15T12:35:34;13.90;;;11.40;;
55069;SDS011;40967;52.070;8.596;2023-05-15T12:38:03;14.30;;;10.40;;
55069;SDS011;40967;52.070;8.596;2023-05-15T12:40:34;10.20;;;7.65;;
55069;SDS011;40967;52.070;8.596;2023-05-15T12:43:03;8.55;;;6.07;;
55069;SDS011;40967;52.070;8.596;2023-05-15T12:45:30;9.30;;;6.50;;
55069;SDS011;40967;52.070;8.596;2023-05-15T12:48:00;12.55;;;9.45;;
55069;SDS011;40967;52.070;8.596;2023-05-15T12:50:26;11.67;;;8.63;;
55069;SDS011;40967;52.070;8.596;2023-05-15T12:52:59;12.07;;;8.70;;
55069;SDS011;40967;52.070;8.596;2023-05-15T12:57:58;13.53;;;10.83;;
55069;SDS011;40967;52.070;8.596;2023-05-15T13:00:27;13.85;;;11.18;;
55069;SDS011;40967;52.070;8.596;2023-05-15T13:02:56;12.48;;;9.70;;
55069;SDS011;40967;52.070;8.596;2023-05-15T13:05:25;15.20;;;11.57;;
55069;SDS011;40967;52.070;8.596;2023-05-15T13:07:51;10.68;;;8.07;;
55069;SDS011;40967;52.070;8.596;2023-05-15T13:10:20;9.07;;;6.68;;
55069;SDS011;40967;52.070;8.596;2023-05-15T13:12:47;13.65;;;10.65;;
55069;SDS011;40967;52.070;8.596;2023-05-15T13:20:36;7.97;;;5.22;;
55069;SDS011;40967;52.070;8.596;2023-05-15T13:23:02;13.45;;;9.48;;
55069;SDS011;40967;52.070;8.596;2023-05-15T13:25:28;13.47;;;9.23;;
55069;SDS011;40967;52.070;8.596;2023-05-15T13:27:56;9.63;;;7.13;;
55069;SDS011;40967;52.070;8.596;2023-05-15T13:30:23;12.77;;;7.95;;
55069;SDS011;40967;52.070;8.596;2023-05-15T13:32:50;12.85;;;9.60;;
55069;SDS011;40967;52.070;8.596;2023-05-15T13:35:15;12.35;;;9.18;;
55069;SDS011;40967;52.070;8.596;2023-05-15T13:37:41;7.20;;;5.30;;
55069;SDS011;40967;52.070;8.596;2023-05-15T13:40:07;8.48;;;4.28;;
55069;SDS011;40967;52.070;8.596;2023-05-15T13:42:35;6.30;;;4.15;;
55069;SDS011;40967;52.070;8.596;2023-05-15T13:45:08;6.07;;;3.67;;
55069;SDS011;40967;52.070;8.596;2023-05-15T13:47:40;6.72;;;4.53;;
55069;SDS011;40967;52.070;8.596;2023-05-15T13:50:12;6.80;;;4.60;;
55069;SDS011;40967;52.070;8.596;2023-05-15T13:52:39;5.33;;;3.57;;
55069;SDS011;40967;52.070;8.596;2023-05-15T13:55:07;6.47;;;4.07;;
55069;SDS011;40967;52.070;8.596;2023-05-15T13:57:39;6.05;;;3.97;;
55069;SDS011;40967;52.070;8.596;2023-05-15T14:00:05;5.03;;;3.50;;
55069;SDS011;40967;52.070;8.596;2023-05-15T14:02:41;7.00;;;4.10;;
55069;SDS011;40967;52.070;8.596;2023-05-15T14:05:08;8.57;;;4.47;;
55069;SDS011;40967;52.070;8.596;2023-05-15T14:07:35;8.40;;;5.77;;
55069;SDS011;40967;52.070;8.596;2023-05-15T14:10:01;9.43;;;5.90;;
55069;SDS011;40967;52.070;8.596;2023-05-15T14:12:27;8.77;;;5.45;;
55069;SDS011;40967;52.070;8.596;2023-05-15T14:14:53;7.73;;;4.60;;
55069;SDS011;40967;52.070;8.596;2023-05-15T14:17:19;6.47;;;4.40;;
55069;SDS011;40967;52.070;8.596;2023-05-15T14:19:44;6.20;;;4.20;;
55069;SDS011;40967;52.070;8.596;2023-05-15T14:22:09;7.17;;;4.70;;
55069;SDS011;40967;52.070;8.596;2023-05-15T14:24:35;6.93;;;4.63;;
55069;SDS011;40967;52.070;8.596;2023-05-15T14:27:00;9.30;;;6.60;;
55069;SDS011;40967;52.070;8.596;2023-05-15T14:29:26;6.72;;;4.50;;
55069;SDS011;40967;52.070;8.596;2023-05-15T14:31:51;9.93;;;6.27;;
55069;SDS011;40967;52.070;8.596;2023-05-15T14:34:17;7.03;;;3.93;;
55069;SDS011;40967;52.070;8.596;2023-05-15T14:36:43;7.97;;;4.27;;
55069;SDS011;40967;52.070;8.596;2023-05-15T14:39:10;7.28;;;5.30;;
55069;SDS011;40967;52.070;8.596;2023-05-15T14:41:38;8.52;;;5.65;;
55069;SDS011;40967;52.070;8.596;2023-05-15T14:44:03;6.70;;;4.70;;
55069;SDS011;40967;52.070;8.596;2023-05-15T14:46:28;6.00;;;3.97;;
55069;SDS011;40967;52.070;8.596;2023-05-15T14:48:54;6.03;;;3.90;;
55069;SDS011;40967;52.070;8.596;2023-05-15T14:51:22;6.43;;;4.30;;
55069;SDS011;40967;52.070;8.596;2023-05-15T14:53:48;6.82;;;3.20;;
55069;SDS011;40967;52.070;8.596;2023-05-15T14:56:13;4.07;;;2.40;;
55069;SDS011;40967;52.070;8.596;2023-05-15T14:58:39;3.63;;;2.17;;
55069;SDS011;40967;52.070;8.596;2023-05-15T15:01:04;4.37;;;2.70;;
55069;SDS011;40967;52.070;8.596;2023-05-15T15:03:30;3.85;;;2.40;;
55069;SDS011;40967;52.070;8.596;2023-05-15T15:05:56;4.07;;;2.40;;
55069;SDS011;40967;52.070;8.596;2023-05-15T15:08:21;3.28;;;2.00;;
55069;SDS011;40967;52.070;8.596;2023-05-15T15:10:47;3.90;;;2.60;;
55069;SDS011;40967;52.070;8.596;2023-05-15T15:13:12;4.37;;;2.93;;
55069;SDS011;40967;52.070;8.596;2023-05-15T15:15:41;4.00;;;2.50;;
55069;SDS011;40967;52.070;8.596;2023-05-15T15:18:09;5.77;;;3.70;;
55069;SDS011;40967;52.070;8.596;2023-05-15T15:20:35;4.13;;;2.53;;
55069;SDS011;40967;52.070;8.596;2023-05-15T15:23:02;4.60;;;3.40;;
55069;SDS011;40967;52.070;8.596;2023-05-15T15:25:28;5.13;;;3.30;;
55069;SDS011;40967;52.070;8.596;2023-05-15T15:27:54;3.20;;;2.10;;
55069;SDS011;40967;52.070;8.596;2023-05-15T15:30:20;3.95;;;2.25;;
55069;SDS011;40967;52.070;8.596;2023-05-15T15:32:45;2.97;;;2.00;;
55069;SDS011;40967;52.070;8.596;2023-05-15T15:35:11;3.73;;;2.33;;
55069;SDS011;40967;52.070;8.596;2023-05-15T15:37:37;3.70;;;2.23;;
55069;SDS011;40967;52.070;8.596;2023-05-15T15:40:06;6.93;;;4.10;;